createdAt,value
2019-02-20T00:00:15.550Z,6.51
2019-02-20T00:01:15.534Z,6.58
2019-02-20T00:02:15.527Z,6.52
2019-02-20T00:03:15.515Z,6.51
2019-02-20T00:04:15.503Z,6.54
2019-02-20T00:05:15.529Z,6.55
2019-02-20T00:06:15.480Z,6.58
2019-02-20T00:07:15.470Z,6.61
2019-02-20T00:08:15.460Z,6.64
2019-02-20T00:09:15.450Z,6.64
2019-02-20T00:10:15.437Z,6.66
2019-02-20T00:11:15.467Z,6.62
2019-02-20T00:12:15.418Z,6.66
2019-02-20T00:13:15.405Z,6.66
2019-02-20T00:14:15.407Z,6.62
2019-02-20T00:15:15.382Z,6.64
2019-02-20T00:16:15.395Z,6.61
2019-02-20T00:17:15.359Z,6.61
2019-02-20T00:18:15.358Z,6.62
2019-02-20T00:19:15.338Z,6.70
2019-02-20T00:20:15.327Z,6.59
2019-02-20T00:21:15.343Z,6.71
2019-02-20T00:22:15.304Z,6.64
2019-02-20T00:23:15.294Z,6.67
2019-02-20T00:24:15.281Z,6.67
2019-02-20T00:25:15.273Z,6.71
2019-02-20T00:26:15.286Z,6.66
2019-02-20T00:27:15.251Z,6.67
2019-02-20T00:28:15.240Z,6.67
2019-02-20T00:29:15.227Z,6.74
2019-02-20T00:30:15.223Z,6.71
2019-02-20T00:31:15.234Z,6.73
2019-02-20T00:32:15.203Z,6.76
2019-02-20T00:33:15.184Z,6.76
2019-02-20T00:34:15.183Z,6.74
2019-02-20T00:35:15.164Z,6.73
2019-02-20T00:36:15.180Z,6.76
2019-02-20T00:37:15.144Z,6.79
2019-02-20T00:38:15.133Z,6.80
2019-02-20T00:39:15.119Z,6.74
2019-02-20T00:40:15.132Z,6.74
2019-02-20T00:41:15.096Z,6.76
2019-02-20T00:42:15.089Z,6.80
2019-02-20T00:43:15.080Z,6.77
2019-02-20T00:44:15.063Z,6.71
2019-02-20T00:45:15.079Z,6.79
2019-02-20T00:46:15.044Z,6.69
2019-02-20T00:47:15.032Z,6.73
2019-02-20T00:48:15.023Z,6.81
2019-02-20T00:49:15.009Z,6.71
2019-02-20T00:50:15.026Z,6.71
2019-02-20T00:51:14.987Z,6.79
2019-02-20T00:52:14.977Z,6.77
2019-02-20T00:53:14.966Z,6.70
2019-02-20T00:54:14.955Z,6.69
2019-02-20T00:55:14.975Z,6.71
2019-02-20T00:56:14.933Z,6.67
2019-02-20T00:57:14.924Z,6.66
2019-02-20T00:58:14.910Z,6.70
2019-02-20T00:59:16.889Z,6.74
2019-02-20T01:00:14.914Z,6.74
2019-02-20T01:01:14.879Z,6.73
2019-02-20T01:02:14.866Z,6.73
2019-02-20T01:03:14.863Z,6.69
2019-02-20T01:04:14.846Z,6.79
2019-02-20T01:05:14.885Z,6.73
2019-02-20T01:06:14.833Z,6.73
2019-02-20T01:07:14.810Z,6.70
2019-02-20T01:08:14.803Z,6.70
2019-02-20T01:09:14.792Z,6.70
2019-02-20T01:10:14.804Z,6.62
2019-02-20T01:11:14.767Z,6.69
2019-02-20T01:12:14.758Z,6.67
2019-02-20T01:13:14.747Z,6.69
2019-02-20T01:14:14.736Z,6.67
2019-02-20T01:15:14.748Z,6.66
2019-02-20T01:16:14.714Z,6.71
2019-02-20T01:17:14.707Z,6.77
2019-02-20T01:18:14.694Z,6.71
2019-02-20T01:19:14.680Z,6.74
2019-02-20T01:20:14.704Z,6.66
2019-02-20T01:21:14.658Z,6.76
2019-02-20T01:22:14.649Z,6.74
2019-02-20T01:23:14.636Z,6.77
2019-02-20T01:24:14.625Z,6.79
2019-02-20T01:25:14.643Z,6.69
2019-02-20T01:26:14.604Z,6.73
2019-02-20T01:27:14.594Z,6.73
2019-02-20T01:28:14.585Z,6.80
2019-02-20T01:29:14.570Z,6.77
2019-02-20T01:30:14.584Z,6.87
2019-02-20T01:31:14.548Z,6.81
2019-02-20T01:32:14.539Z,6.84
2019-02-20T01:33:16.510Z,6.87
2019-02-20T01:34:14.518Z,6.77
2019-02-20T01:35:14.541Z,6.85
2019-02-20T01:36:14.494Z,6.88
2019-02-20T01:37:14.483Z,6.94
2019-02-20T01:38:14.473Z,6.85
2019-02-20T01:39:14.461Z,6.92
2019-02-20T01:40:14.479Z,6.77
2019-02-20T01:41:14.442Z,6.81
2019-02-20T01:42:14.428Z,6.81
2019-02-20T01:43:14.417Z,6.77
2019-02-20T01:44:14.406Z,6.77
2019-02-20T01:45:14.425Z,6.74
2019-02-20T01:46:14.385Z,6.77
2019-02-20T01:47:14.376Z,6.77
2019-02-20T01:48:14.362Z,6.73
2019-02-20T01:49:14.351Z,6.77
2019-02-20T01:50:14.365Z,6.76
2019-02-20T01:51:14.329Z,6.80
2019-02-20T01:52:14.318Z,6.81
2019-02-20T01:53:14.306Z,6.77
2019-02-20T01:54:14.296Z,6.74
2019-02-20T01:55:14.315Z,6.85
2019-02-20T01:56:14.274Z,6.76
2019-02-20T01:57:14.263Z,6.74
2019-02-20T01:58:14.253Z,6.77
2019-02-20T01:59:14.243Z,6.77
2019-02-20T02:00:14.260Z,6.84
2019-02-20T02:01:14.223Z,6.81
2019-02-20T02:02:14.211Z,6.79
2019-02-20T02:03:14.198Z,6.85
2019-02-20T02:04:14.192Z,6.89
2019-02-20T02:05:15.838Z,6.95
2019-02-20T02:06:14.167Z,6.92
2019-02-20T02:07:14.154Z,6.94
2019-02-20T02:08:14.145Z,6.97
2019-02-20T02:09:14.133Z,6.97
2019-02-20T02:10:14.147Z,6.97
2019-02-20T02:11:14.112Z,6.97
2019-02-20T02:12:14.103Z,6.95
2019-02-20T02:13:14.088Z,6.94
2019-02-20T02:14:14.077Z,6.98
2019-02-20T02:15:20.421Z,6.94
2019-02-20T02:16:15.057Z,6.97
2019-02-20T02:17:14.051Z,6.97
2019-02-20T02:18:14.034Z,6.92
2019-02-20T02:19:14.023Z,6.94
2019-02-20T02:20:14.038Z,6.80
2019-02-20T02:21:14.002Z,6.80
2019-02-20T02:22:13.990Z,6.91
2019-02-20T02:23:19.818Z,6.91
2019-02-20T02:24:14.971Z,6.91
2019-02-20T02:25:13.994Z,6.81
2019-02-20T02:26:13.947Z,6.85
2019-02-20T02:27:13.939Z,6.92
2019-02-20T02:28:13.931Z,6.85
2019-02-20T02:29:13.920Z,6.87
2019-02-20T02:30:13.903Z,6.88
2019-02-20T02:31:13.965Z,6.94
2019-02-20T02:32:13.886Z,6.97
2019-02-20T02:33:13.872Z,6.89
2019-02-20T02:34:13.857Z,6.95
2019-02-20T02:35:13.884Z,6.94
2019-02-20T02:36:13.838Z,6.92
2019-02-20T02:37:13.828Z,6.88
2019-02-20T02:38:13.818Z,6.87
2019-02-20T02:39:13.804Z,6.88
2019-02-20T02:40:13.795Z,6.92
2019-02-20T02:41:13.817Z,6.95
2019-02-20T02:42:13.792Z,6.88
2019-02-20T02:43:13.760Z,6.87
2019-02-20T02:44:13.750Z,6.89
2019-02-20T02:45:13.740Z,6.91
2019-02-20T02:46:13.767Z,6.92
2019-02-20T02:47:13.717Z,6.91
2019-02-20T02:48:13.704Z,6.87
2019-02-20T02:49:13.718Z,6.87
2019-02-20T02:50:13.685Z,6.89
2019-02-20T02:51:13.673Z,6.77
2019-02-20T02:52:13.700Z,6.81
2019-02-20T02:53:13.654Z,6.79
2019-02-20T02:54:13.640Z,6.85
2019-02-20T02:55:13.629Z,6.84
2019-02-20T02:56:13.622Z,6.80
2019-02-20T02:57:13.608Z,6.79
2019-02-20T02:58:13.634Z,6.85
2019-02-20T02:59:13.584Z,6.79
2019-02-20T03:00:13.576Z,6.81
2019-02-20T03:01:13.565Z,6.80
2019-02-20T03:02:13.555Z,6.80
2019-02-20T03:03:13.542Z,6.80
2019-02-20T03:04:13.585Z,6.74
2019-02-20T03:05:13.518Z,6.77
2019-02-20T03:06:13.507Z,6.69
2019-02-20T03:07:13.498Z,6.76
2019-02-20T03:08:13.486Z,6.73
2019-02-20T03:09:13.477Z,6.74
2019-02-20T03:10:13.564Z,6.62
2019-02-20T03:11:13.454Z,6.62
2019-02-20T03:12:13.447Z,6.70
2019-02-20T03:13:13.432Z,6.64
2019-02-20T03:14:13.421Z,6.62
2019-02-20T03:15:13.436Z,6.64
2019-02-20T03:16:13.399Z,6.62
2019-02-20T03:17:13.391Z,6.58
2019-02-20T03:18:13.382Z,6.64
2019-02-20T03:19:13.367Z,6.64
2019-02-20T03:20:13.381Z,6.67
2019-02-20T03:21:13.346Z,6.58
2019-02-20T03:22:13.335Z,6.69
2019-02-20T03:23:13.322Z,6.55
2019-02-20T03:24:13.316Z,6.64
2019-02-20T03:25:13.337Z,6.59
2019-02-20T03:26:13.293Z,6.49
2019-02-20T03:27:13.276Z,6.51
2019-02-20T03:28:13.267Z,6.54
2019-02-20T03:29:13.256Z,6.55
2019-02-20T03:30:13.251Z,6.52
2019-02-20T03:31:13.456Z,6.51
2019-02-20T03:32:13.229Z,6.56
2019-02-20T03:33:13.231Z,6.44
2019-02-20T03:34:13.201Z,6.51
2019-02-20T03:35:13.218Z,6.41
2019-02-20T03:36:13.180Z,6.51
2019-02-20T03:37:13.219Z,6.51
2019-02-20T03:38:13.156Z,6.46
2019-02-20T03:39:13.156Z,6.51
2019-02-20T03:40:13.161Z,6.40
2019-02-20T03:41:13.126Z,6.44
2019-02-20T03:42:13.114Z,6.48
2019-02-20T03:43:13.109Z,6.48
2019-02-20T03:44:13.091Z,6.51
2019-02-20T03:45:13.105Z,6.48
2019-02-20T03:46:13.072Z,6.46
2019-02-20T03:47:13.065Z,6.48
2019-02-20T03:48:13.051Z,6.44
2019-02-20T03:49:13.038Z,6.44
2019-02-20T03:50:13.060Z,6.40
2019-02-20T03:51:13.018Z,6.43
2019-02-20T03:52:13.005Z,6.40
2019-02-20T03:53:12.997Z,6.40
2019-02-20T03:54:12.984Z,6.41
2019-02-20T03:55:13.010Z,6.40
2019-02-20T03:56:12.964Z,6.22
2019-02-20T03:57:12.954Z,6.38
2019-02-20T03:58:12.942Z,6.37
2019-02-20T03:59:12.930Z,6.33
2019-02-20T04:00:12.958Z,6.34
2019-02-20T04:01:12.926Z,6.30
2019-02-20T04:02:12.901Z,6.38
2019-02-20T04:03:12.887Z,6.31
2019-02-20T04:04:12.883Z,6.25
2019-02-20T04:05:12.865Z,6.36
2019-02-20T04:06:12.897Z,6.38
2019-02-20T04:07:12.843Z,6.38
2019-02-20T04:08:12.833Z,6.40
2019-02-20T04:09:12.823Z,6.30
2019-02-20T04:10:12.813Z,6.44
2019-02-20T04:11:12.802Z,6.40
2019-02-20T04:12:12.832Z,6.38
2019-02-20T04:13:12.778Z,6.34
2019-02-20T04:14:12.776Z,6.43
2019-02-20T04:15:12.759Z,6.46
2019-02-20T04:16:12.749Z,6.54
2019-02-20T04:17:12.738Z,6.49
2019-02-20T04:18:12.762Z,6.48
2019-02-20T04:19:12.716Z,6.56
2019-02-20T04:20:12.707Z,6.51
2019-02-20T04:21:12.696Z,6.49
2019-02-20T04:22:12.684Z,6.48
2019-02-20T04:23:12.693Z,6.54
2019-02-20T04:24:12.703Z,6.49
2019-02-20T04:25:12.653Z,6.56
2019-02-20T04:26:12.644Z,6.56
2019-02-20T04:27:12.630Z,6.46
2019-02-20T04:28:12.618Z,6.56
2019-02-20T04:29:12.609Z,6.58
2019-02-20T04:30:12.634Z,6.52
2019-02-20T04:31:12.587Z,6.62
2019-02-20T04:32:12.580Z,6.52
2019-02-20T04:33:12.565Z,6.64
2019-02-20T04:34:12.559Z,6.62
2019-02-20T04:35:12.543Z,6.69
2019-02-20T04:36:12.571Z,6.67
2019-02-20T04:37:12.523Z,6.67
2019-02-20T04:38:12.508Z,6.59
2019-02-20T04:39:12.511Z,6.66
2019-02-20T04:40:12.489Z,6.67
2019-02-20T04:41:12.487Z,6.64
2019-02-20T04:42:12.513Z,6.70
2019-02-20T04:43:12.454Z,6.69
2019-02-20T04:44:12.443Z,6.67
2019-02-20T04:45:12.438Z,6.73
2019-02-20T04:46:12.420Z,6.79
2019-02-20T04:47:12.412Z,6.79
2019-02-20T04:48:12.436Z,6.71
2019-02-20T04:49:12.393Z,6.77
2019-02-20T04:50:12.384Z,6.70
2019-02-20T04:51:12.371Z,6.70
2019-02-20T04:52:12.358Z,6.74
2019-02-20T04:53:12.345Z,6.85
2019-02-20T04:54:13.684Z,6.73
2019-02-20T04:55:12.325Z,6.80
2019-02-20T04:56:12.314Z,6.79
2019-02-20T04:57:12.304Z,6.89
2019-02-20T04:58:12.293Z,6.81
2019-02-20T04:59:12.282Z,6.88
2019-02-20T05:00:12.308Z,6.87
2019-02-20T05:01:12.262Z,6.89
2019-02-20T05:02:12.249Z,6.80
2019-02-20T05:03:12.241Z,6.91
2019-02-20T05:04:12.227Z,6.87
2019-02-20T05:05:12.218Z,6.88
2019-02-20T05:06:12.243Z,6.91
2019-02-20T05:07:12.196Z,6.88
2019-02-20T05:08:12.185Z,6.88
2019-02-20T05:09:12.175Z,6.89
2019-02-20T05:10:12.166Z,6.91
2019-02-20T05:11:12.155Z,6.95
2019-02-20T05:12:12.180Z,6.98
2019-02-20T05:13:12.145Z,6.92
2019-02-20T05:14:12.120Z,6.92
2019-02-20T05:15:12.110Z,6.94
2019-02-20T05:16:12.106Z,6.98
2019-02-20T05:17:12.086Z,6.92
2019-02-20T05:18:12.113Z,6.95
2019-02-20T05:19:12.066Z,6.88
2019-02-20T05:20:12.055Z,6.89
2019-02-20T05:21:12.043Z,6.91
2019-02-20T05:22:12.034Z,6.92
2019-02-20T05:23:12.023Z,6.92
2019-02-20T05:24:12.053Z,6.91
2019-02-20T05:25:12.003Z,7.03
2019-02-20T05:26:11.989Z,6.98
2019-02-20T05:27:11.991Z,7.02
2019-02-20T05:28:11.969Z,6.95
2019-02-20T05:29:11.961Z,7.03
2019-02-20T05:30:11.994Z,6.97
2019-02-20T05:31:11.941Z,6.95
2019-02-20T05:32:11.923Z,6.95
2019-02-20T05:33:11.917Z,7.02
2019-02-20T05:34:11.903Z,7.07
2019-02-20T05:35:11.890Z,7.06
2019-02-20T05:36:11.918Z,6.99
2019-02-20T05:37:11.871Z,7.07
2019-02-20T05:38:11.863Z,7.06
2019-02-20T05:39:11.850Z,6.95
2019-02-20T05:40:11.837Z,6.98
2019-02-20T05:41:11.828Z,7.03
2019-02-20T05:42:11.919Z,7.05
2019-02-20T05:43:11.811Z,7.05
2019-02-20T05:44:11.795Z,7.10
2019-02-20T05:45:11.784Z,6.99
2019-02-20T05:46:11.770Z,7.07
2019-02-20T05:47:11.761Z,7.05
2019-02-20T05:48:11.789Z,7.06
2019-02-20T05:49:11.742Z,7.05
2019-02-20T05:50:11.728Z,7.09
2019-02-20T05:51:11.722Z,7.07
2019-02-20T05:52:11.706Z,7.09
2019-02-20T05:53:11.696Z,7.03
2019-02-20T05:54:11.721Z,6.99
2019-02-20T05:55:11.678Z,7.05
2019-02-20T05:56:11.662Z,7.03
2019-02-20T05:57:11.653Z,6.99
2019-02-20T05:58:11.683Z,7.05
2019-02-20T05:59:11.631Z,7.06
2019-02-20T06:00:11.656Z,7.03
2019-02-20T06:01:11.611Z,7.06
2019-02-20T06:02:11.599Z,7.07
2019-02-20T06:03:11.589Z,7.06
2019-02-20T06:04:11.580Z,6.97
2019-02-20T06:05:11.575Z,6.97
2019-02-20T06:06:11.595Z,7.05
2019-02-20T06:07:11.551Z,7.05
2019-02-20T06:08:11.537Z,7.05
2019-02-20T06:09:11.522Z,6.98
2019-02-20T06:10:11.511Z,7.09
2019-02-20T06:11:14.743Z,7.03
2019-02-20T06:12:11.528Z,6.98
2019-02-20T06:13:11.479Z,7.09
2019-02-20T06:14:11.471Z,7.07
2019-02-20T06:15:11.460Z,7.09
2019-02-20T06:16:11.450Z,7.07
2019-02-20T06:17:11.441Z,7.05
2019-02-20T06:18:11.465Z,7.07
2019-02-20T06:19:11.417Z,6.98
2019-02-20T06:20:11.425Z,7.02
2019-02-20T06:21:11.393Z,7.05
2019-02-20T06:22:11.384Z,7.10
2019-02-20T06:23:11.374Z,7.06
2019-02-20T06:24:11.402Z,7.03
2019-02-20T06:25:11.350Z,7.09
2019-02-20T06:26:11.338Z,7.03
2019-02-20T06:27:11.329Z,7.02
2019-02-20T06:28:11.318Z,7.03
2019-02-20T06:29:11.308Z,7.16
2019-02-20T06:30:11.331Z,7.16
2019-02-20T06:31:11.285Z,7.09
2019-02-20T06:32:11.274Z,7.03
2019-02-20T06:33:11.266Z,7.07
2019-02-20T06:34:11.256Z,7.12
2019-02-20T06:35:11.241Z,7.12
2019-02-20T06:36:11.269Z,7.09
2019-02-20T06:37:11.221Z,7.12
2019-02-20T06:38:11.663Z,7.09
2019-02-20T06:39:11.201Z,7.07
2019-02-20T06:40:11.188Z,7.12
2019-02-20T06:41:11.178Z,7.13
2019-02-20T06:42:11.212Z,7.12
2019-02-20T06:43:11.157Z,7.09
2019-02-20T06:44:11.142Z,7.07
2019-02-20T06:45:11.133Z,7.06
2019-02-20T06:46:11.123Z,7.12
2019-02-20T06:47:11.111Z,7.12
2019-02-20T06:48:11.138Z,7.09
2019-02-20T06:49:11.090Z,7.10
2019-02-20T06:50:11.079Z,7.21
2019-02-20T06:51:11.073Z,7.17
2019-02-20T06:52:11.056Z,7.09
2019-02-20T06:53:11.050Z,7.15
2019-02-20T06:54:11.094Z,7.23
2019-02-20T06:55:11.028Z,7.12
2019-02-20T06:56:11.016Z,7.15
2019-02-20T06:57:11.003Z,7.21
2019-02-20T06:58:10.993Z,7.27
2019-02-20T06:59:10.982Z,7.20
2019-02-20T07:00:11.008Z,7.25
2019-02-20T07:01:10.959Z,7.28
2019-02-20T07:02:10.948Z,7.27
2019-02-20T07:03:10.941Z,7.30
2019-02-20T07:04:10.927Z,7.20
2019-02-20T07:05:10.918Z,7.31
2019-02-20T07:06:10.943Z,7.28
2019-02-20T07:07:10.905Z,7.28
2019-02-20T07:08:10.886Z,7.28
2019-02-20T07:09:10.880Z,7.32
2019-02-20T07:10:10.866Z,7.27
2019-02-20T07:11:10.854Z,7.28
2019-02-20T07:12:10.879Z,7.34
2019-02-20T07:13:10.833Z,7.35
2019-02-20T07:14:10.823Z,7.27
2019-02-20T07:15:10.811Z,7.28
2019-02-20T07:16:10.803Z,7.32
2019-02-20T07:17:10.791Z,7.28
2019-02-20T07:18:10.814Z,7.32
2019-02-20T07:19:10.773Z,7.39
2019-02-20T07:20:10.759Z,7.32
2019-02-20T07:21:10.750Z,7.30
2019-02-20T07:22:10.737Z,7.32
2019-02-20T07:23:10.727Z,7.32
2019-02-20T07:24:10.751Z,7.39
2019-02-20T07:25:10.707Z,7.37
2019-02-20T07:26:10.695Z,7.42
2019-02-20T07:27:10.689Z,7.42
2019-02-20T07:28:10.678Z,7.32
2019-02-20T07:29:10.664Z,7.35
2019-02-20T07:30:10.696Z,7.39
2019-02-20T07:31:10.644Z,7.30
2019-02-20T07:32:10.632Z,7.34
2019-02-20T07:33:10.625Z,7.28
2019-02-20T07:34:10.613Z,7.30
2019-02-20T07:35:10.653Z,7.25
2019-02-20T07:36:10.632Z,7.31
2019-02-20T07:37:10.583Z,7.30
2019-02-20T07:38:10.570Z,7.30
2019-02-20T07:39:10.559Z,7.30
2019-02-20T07:40:10.549Z,7.30
2019-02-20T07:41:10.543Z,7.31
2019-02-20T07:42:10.564Z,7.27
2019-02-20T07:43:10.518Z,7.23
2019-02-20T07:44:10.507Z,7.23
2019-02-20T07:45:10.504Z,7.24
2019-02-20T07:46:10.485Z,7.28
2019-02-20T07:47:10.479Z,7.25
2019-02-20T07:48:10.501Z,7.30
2019-02-20T07:49:10.455Z,7.24
2019-02-20T07:50:10.444Z,7.28
2019-02-20T07:51:10.440Z,7.21
2019-02-20T07:52:10.424Z,7.27
2019-02-20T07:53:10.412Z,7.17
2019-02-20T07:54:10.437Z,7.21
2019-02-20T07:55:13.279Z,7.20
2019-02-20T07:56:10.378Z,7.27
2019-02-20T07:57:10.370Z,7.27
2019-02-20T07:58:10.363Z,7.25
2019-02-20T07:59:10.350Z,7.30
2019-02-20T08:00:10.377Z,7.28
2019-02-20T08:01:10.350Z,7.32
2019-02-20T08:02:10.321Z,7.28
2019-02-20T08:03:10.356Z,7.32
2019-02-20T08:04:10.299Z,7.31
2019-02-20T08:05:10.283Z,7.37
2019-02-20T08:06:10.311Z,7.32
2019-02-20T08:07:10.263Z,7.32
2019-02-20T08:08:10.252Z,7.32
2019-02-20T08:09:10.243Z,7.32
2019-02-20T08:10:10.231Z,7.25
2019-02-20T08:11:10.241Z,7.28
2019-02-20T08:12:10.247Z,7.25
2019-02-20T08:13:10.199Z,7.25
2019-02-20T08:14:10.190Z,7.23
2019-02-20T08:15:10.181Z,7.17
2019-02-20T08:16:10.170Z,7.28
2019-02-20T08:17:10.158Z,7.27
2019-02-20T08:18:10.186Z,7.25
2019-02-20T08:19:10.137Z,7.24
2019-02-20T08:20:10.125Z,7.20
2019-02-20T08:21:10.115Z,7.23
2019-02-20T08:22:10.120Z,7.28
2019-02-20T08:23:10.099Z,7.31
2019-02-20T08:24:10.118Z,7.30
2019-02-20T08:25:10.076Z,7.40
2019-02-20T08:26:10.061Z,7.43
2019-02-20T08:27:10.065Z,7.37
2019-02-20T08:28:10.039Z,7.43
2019-02-20T08:29:10.039Z,7.39
2019-02-20T08:30:10.052Z,7.48
2019-02-20T08:31:10.007Z,7.43
2019-02-20T08:32:09.997Z,7.43
2019-02-20T08:33:09.986Z,7.42
2019-02-20T08:34:09.977Z,7.50
2019-02-20T08:35:10.000Z,7.53
2019-02-20T08:36:09.953Z,7.52
2019-02-20T08:37:09.942Z,7.58
2019-02-20T08:38:09.938Z,7.58
2019-02-20T08:39:09.922Z,7.68
2019-02-20T08:40:09.912Z,7.82
2019-02-20T08:41:09.927Z,7.75
2019-02-20T08:42:09.900Z,7.86
2019-02-20T08:43:09.881Z,7.79
2019-02-20T08:44:09.870Z,7.92
2019-02-20T08:45:09.860Z,7.97
2019-02-20T08:46:09.877Z,7.93
2019-02-20T08:47:09.837Z,7.97
2019-02-20T08:48:09.827Z,8.07
2019-02-20T08:49:09.819Z,8.00
2019-02-20T08:50:09.805Z,8.11
2019-02-20T08:51:09.821Z,8.04
2019-02-20T08:52:09.782Z,8.18
2019-02-20T08:53:09.772Z,8.23
2019-02-20T08:54:09.764Z,8.29
2019-02-20T08:55:09.750Z,8.25
2019-02-20T08:56:09.764Z,8.28
2019-02-20T08:57:09.753Z,8.25
2019-02-20T08:58:09.730Z,8.36
2019-02-20T08:59:09.705Z,8.33
2019-02-20T09:00:09.697Z,8.29
2019-02-20T09:01:09.711Z,8.28
2019-02-20T09:02:09.675Z,8.30
2019-02-20T09:03:09.662Z,8.28
2019-02-20T09:04:09.653Z,8.29
2019-02-20T09:05:09.639Z,8.37
2019-02-20T09:06:09.652Z,8.48
2019-02-20T09:07:09.666Z,8.43
2019-02-20T09:08:09.608Z,8.47
2019-02-20T09:09:09.596Z,8.41
2019-02-20T09:10:09.586Z,8.41
2019-02-20T09:11:09.601Z,8.41
2019-02-20T09:12:09.563Z,8.40
2019-02-20T09:13:09.556Z,8.48
2019-02-20T09:14:09.542Z,8.44
2019-02-20T09:15:09.531Z,8.38
2019-02-20T09:16:09.547Z,8.37
2019-02-20T09:17:09.530Z,8.43
2019-02-20T09:18:09.501Z,8.45
2019-02-20T09:19:09.496Z,8.44
2019-02-20T09:20:09.476Z,8.48
2019-02-20T09:21:09.494Z,8.45
2019-02-20T09:22:09.460Z,8.48
2019-02-20T09:23:09.450Z,8.43
2019-02-20T09:24:09.439Z,8.47
2019-02-20T09:25:09.423Z,8.48
2019-02-20T09:26:09.437Z,8.47
2019-02-20T09:27:09.401Z,8.59
2019-02-20T09:28:09.391Z,8.52
2019-02-20T09:29:09.381Z,8.61
2019-02-20T09:30:09.369Z,8.65
2019-02-20T09:31:09.385Z,8.50
2019-02-20T09:32:09.347Z,8.58
2019-02-20T09:33:09.334Z,8.65
2019-02-20T09:34:09.329Z,8.63
2019-02-20T09:35:09.315Z,8.68
2019-02-20T09:36:09.331Z,8.66
2019-02-20T09:37:09.291Z,8.68
2019-02-20T09:38:10.567Z,8.74
2019-02-20T09:39:09.293Z,8.73
2019-02-20T09:40:09.261Z,8.76
2019-02-20T09:41:09.278Z,8.79
2019-02-20T09:42:09.240Z,8.68
2019-02-20T09:43:09.228Z,8.76
2019-02-20T09:44:09.220Z,8.91
2019-02-20T09:45:09.208Z,8.76
2019-02-20T09:46:09.225Z,8.74
2019-02-20T09:47:09.186Z,8.79
2019-02-20T09:48:09.179Z,8.79
2019-02-20T09:49:09.166Z,8.79
2019-02-20T09:50:09.155Z,8.81
2019-02-20T09:51:09.168Z,8.86
2019-02-20T09:52:09.132Z,8.95
2019-02-20T09:53:09.123Z,8.89
2019-02-20T09:54:09.112Z,8.87
2019-02-20T09:55:09.101Z,8.87
2019-02-20T09:56:09.115Z,8.80
2019-02-20T09:57:09.080Z,8.84
2019-02-20T09:58:09.067Z,8.94
2019-02-20T09:59:09.057Z,8.84
2019-02-20T10:00:09.047Z,8.99
2019-02-20T10:01:09.062Z,9.05
2019-02-20T10:02:09.026Z,9.08
2019-02-20T10:03:09.015Z,9.15
2019-02-20T10:04:09.003Z,9.13
2019-02-20T10:05:08.995Z,9.18
2019-02-20T10:06:09.008Z,9.08
2019-02-20T10:07:08.974Z,9.04
2019-02-20T10:08:08.960Z,9.10
2019-02-20T10:09:08.950Z,9.11
2019-02-20T10:10:08.938Z,9.04
2019-02-20T10:11:08.950Z,9.01
2019-02-20T10:12:08.923Z,9.13
2019-02-20T10:13:11.119Z,9.08
2019-02-20T10:14:08.895Z,9.01
2019-02-20T10:15:08.885Z,9.11
2019-02-20T10:16:08.906Z,9.10
2019-02-20T10:17:08.863Z,9.11
2019-02-20T10:18:08.851Z,9.18
2019-02-20T10:19:08.842Z,9.23
2019-02-20T10:20:08.833Z,9.21
2019-02-20T10:21:08.844Z,9.24
2019-02-20T10:22:08.808Z,9.23
2019-02-20T10:23:08.795Z,9.20
2019-02-20T10:24:08.786Z,9.20
2019-02-20T10:25:08.776Z,9.31
2019-02-20T10:26:08.789Z,9.33
2019-02-20T10:27:08.753Z,9.40
2019-02-20T10:28:08.750Z,9.50
2019-02-20T10:29:08.733Z,9.61
2019-02-20T10:30:08.727Z,9.57
2019-02-20T10:31:08.737Z,9.79
2019-02-20T10:32:08.702Z,9.78
2019-02-20T10:33:08.691Z,9.91
2019-02-20T10:34:08.677Z,10.01
2019-02-20T10:35:08.669Z,10.20
2019-02-20T10:36:08.685Z,10.08
2019-02-20T10:37:08.649Z,10.07
2019-02-20T10:38:08.636Z,10.07
2019-02-20T10:39:08.626Z,9.96
2019-02-20T10:40:08.627Z,9.90
2019-02-20T10:41:08.630Z,9.81
2019-02-20T10:42:08.595Z,9.79
2019-02-20T10:43:08.583Z,9.97
2019-02-20T10:44:08.574Z,9.99
2019-02-20T10:45:08.562Z,9.83
2019-02-20T10:46:08.666Z,9.96
2019-02-20T10:47:08.545Z,9.89
2019-02-20T10:48:08.529Z,9.93
2019-02-20T10:49:08.519Z,10.02
2019-02-20T10:50:08.509Z,9.94
2019-02-20T10:51:08.528Z,10.05
2019-02-20T10:52:08.487Z,9.97
2019-02-20T10:53:08.474Z,10.08
2019-02-20T10:54:08.465Z,10.18
2019-02-20T10:55:08.455Z,10.26
2019-02-20T10:56:09.645Z,10.26
2019-02-20T10:57:08.431Z,10.27
2019-02-20T10:58:08.423Z,10.30
2019-02-20T10:59:08.410Z,10.33
2019-02-20T11:00:08.399Z,10.34
2019-02-20T11:01:08.420Z,10.52
2019-02-20T11:02:08.378Z,10.55
2019-02-20T11:03:08.368Z,10.79
2019-02-20T11:04:08.355Z,10.74
2019-02-20T11:05:08.345Z,10.74
2019-02-20T11:06:08.358Z,10.70
2019-02-20T11:07:08.322Z,10.78
2019-02-20T11:08:08.311Z,10.82
2019-02-20T11:09:08.301Z,10.84
2019-02-20T11:10:08.291Z,10.84
2019-02-20T11:11:08.306Z,10.96
2019-02-20T11:12:08.279Z,11.06
2019-02-20T11:13:08.261Z,11.14
2019-02-20T11:14:08.246Z,11.07
2019-02-20T11:15:08.254Z,11.07
2019-02-20T11:16:08.249Z,11.02
2019-02-20T11:17:08.220Z,10.96
2019-02-20T11:18:08.203Z,10.89
2019-02-20T11:19:08.194Z,11.00
2019-02-20T11:20:08.184Z,11.00
2019-02-20T11:21:08.227Z,10.88
2019-02-20T11:22:08.160Z,10.82
2019-02-20T11:23:08.152Z,10.85
2019-02-20T11:24:08.139Z,11.00
2019-02-20T11:25:08.134Z,11.00
2019-02-20T11:26:08.141Z,11.07
2019-02-20T11:27:08.110Z,11.11
2019-02-20T11:28:08.097Z,11.14
2019-02-20T11:29:08.085Z,11.02
2019-02-20T11:30:08.075Z,10.97
2019-02-20T11:31:08.089Z,10.85
2019-02-20T11:32:08.076Z,10.85
2019-02-20T11:33:08.044Z,10.97
2019-02-20T11:34:08.031Z,11.09
2019-02-20T11:35:08.020Z,11.17
2019-02-20T11:36:08.033Z,11.14
2019-02-20T11:37:08.002Z,11.06
2019-02-20T11:38:07.991Z,11.14
2019-02-20T11:39:07.976Z,11.18
2019-02-20T11:40:07.972Z,11.06
2019-02-20T11:41:08.015Z,11.11
2019-02-20T11:42:07.950Z,11.00
2019-02-20T11:43:07.938Z,11.09
2019-02-20T11:44:07.922Z,11.19
2019-02-20T11:45:07.913Z,11.32
2019-02-20T11:46:07.927Z,11.46
2019-02-20T11:47:07.891Z,11.55
2019-02-20T11:48:07.883Z,11.47
2019-02-20T11:49:07.876Z,11.54
2019-02-20T11:50:07.984Z,11.49
2019-02-20T11:51:07.870Z,11.40
2019-02-20T11:52:14.878Z,11.29
2019-02-20T11:53:07.824Z,11.11
2019-02-20T11:54:07.817Z,11.00
2019-02-20T11:55:07.819Z,10.97
2019-02-20T11:56:07.827Z,10.99
2019-02-20T11:57:07.782Z,11.00
2019-02-20T11:58:07.775Z,10.78
2019-02-20T11:59:07.767Z,10.78
2019-02-20T12:00:07.749Z,10.66
2019-02-20T12:01:07.766Z,10.71
2019-02-20T12:02:07.728Z,10.74
2019-02-20T12:03:07.717Z,10.85
2019-02-20T12:04:07.707Z,11.02
2019-02-20T12:05:07.696Z,11.00
2019-02-20T12:06:07.710Z,11.07
2019-02-20T12:07:07.673Z,10.99
2019-02-20T12:08:07.664Z,11.14
2019-02-20T12:09:07.654Z,11.11
2019-02-20T12:10:07.642Z,11.33
2019-02-20T12:11:07.660Z,11.58
2019-02-20T12:12:09.369Z,11.96
2019-02-20T12:13:07.623Z,12.07
2019-02-20T12:14:07.597Z,12.10
2019-02-20T12:15:07.587Z,12.04
2019-02-20T12:16:07.604Z,12.04
2019-02-20T12:17:07.566Z,12.32
2019-02-20T12:18:07.553Z,12.56
2019-02-20T12:19:07.543Z,12.87
2019-02-20T12:20:07.533Z,12.92
2019-02-20T12:21:07.609Z,12.74
2019-02-20T12:22:07.511Z,12.72
2019-02-20T12:23:07.500Z,12.52
2019-02-20T12:24:07.490Z,12.27
2019-02-20T12:25:07.482Z,12.27
2019-02-20T12:26:07.496Z,12.31
2019-02-20T12:27:07.458Z,12.24
2019-02-20T12:28:07.446Z,12.21
2019-02-20T12:29:07.437Z,12.04
2019-02-20T12:30:07.428Z,11.88
2019-02-20T12:31:07.447Z,11.83
2019-02-20T12:32:07.405Z,11.67
2019-02-20T12:33:07.395Z,11.57
2019-02-20T12:34:07.385Z,11.42
2019-02-20T12:35:07.374Z,11.40
2019-02-20T12:36:07.387Z,11.39
2019-02-20T12:37:07.351Z,11.44
2019-02-20T12:38:07.342Z,11.54
2019-02-20T12:39:07.363Z,11.67
2019-02-20T12:40:07.321Z,11.85
2019-02-20T12:41:07.342Z,11.95
2019-02-20T12:42:07.322Z,11.82
2019-02-20T12:43:07.290Z,11.73
2019-02-20T12:44:07.280Z,11.69
2019-02-20T12:45:07.268Z,11.47
2019-02-20T12:46:07.314Z,11.44
2019-02-20T12:47:07.246Z,11.37
2019-02-20T12:48:07.236Z,11.36
2019-02-20T12:49:07.224Z,11.33
2019-02-20T12:50:07.213Z,11.37
2019-02-20T12:51:07.227Z,11.27
2019-02-20T12:52:07.191Z,11.19
2019-02-20T12:53:07.181Z,11.17
2019-02-20T12:54:07.170Z,11.18
2019-02-20T12:55:07.159Z,11.17
2019-02-20T12:56:09.929Z,11.19
2019-02-20T12:57:07.139Z,11.11
2019-02-20T12:58:07.126Z,11.07
2019-02-20T12:59:07.961Z,11.09
2019-02-20T13:00:07.119Z,10.82
2019-02-20T13:01:07.120Z,10.88
2019-02-20T13:02:07.086Z,11.03
2019-02-20T13:03:07.073Z,11.44
2019-02-20T13:04:07.083Z,11.46
2019-02-20T13:05:07.049Z,11.42
2019-02-20T13:06:07.094Z,11.19
2019-02-20T13:07:07.030Z,11.19
2019-02-20T13:08:07.017Z,11.15
2019-02-20T13:09:07.009Z,11.10
2019-02-20T13:10:06.998Z,11.09
2019-02-20T13:11:07.065Z,11.00
2019-02-20T13:12:06.973Z,10.97
2019-02-20T13:13:06.966Z,10.94